Time;durP1;ratioP1;P1;durP2;ratioP2;P2;SDS_P1;SDS_P2;PMS_P1;PMS_P2;Temp;Humidity;BMP_temperature;BMP_pressure;BME280_temperature;BME280_humidity;BME280_pressure;Samples;Min_cycle;Max_cycle;Signal;HPM_P1;HPM_P2
2023/08/10 00:04:36;;;;;;;9.40;5.70;;;;;;;25.48;69.21;99733.44;10454526;28;20076;-71
2023/08/10 00:09:37;;;;;;;17.45;5.90;;;;;;;25.44;70.09;99731.56;10454601;28;20098;-71
2023/08/10 00:14:38;;;;;;;13.20;5.20;;;;;;;25.47;68.40;99710.06;10454972;28;20033;-71
2023/08/10 00:19:38;;;;;;;17.25;5.63;;;;;;;25.46;68.98;99732.94;10454562;28;20099;-71
2023/08/10 00:24:39;;;;;;;13.43;5.65;;;;;;;25.33;68.74;99727.28;10454233;28;20041;-71
2023/08/10 00:29:40;;;;;;;17.88;5.68;;;;;;;24.89;69.49;99688.09;10454587;28;20072;-71
2023/08/10 00:34:42;;;;;;;17.30;5.63;;;;;;;25.13;69.85;99758.06;10454675;28;20085;-71
2023/08/10 00:39:43;;;;;;;13.48;5.88;;;;;;;24.78;70.47;99747.06;10454487;28;20510;-71
2023/08/10 00:44:43;;;;;;;8.43;5.63;;;;;;;25.04;71.80;99785.84;10453533;28;20135;-71
2023/08/10 00:49:45;;;;;;;13.27;6.05;;;;;;;25.00;71.60;99784.75;10453798;28;20041;-71
2023/08/10 00:54:46;;;;;;;9.70;6.13;;;;;;;24.76;71.83;99779.09;10453982;28;20040;-71
2023/08/10 00:59:47;;;;;;;17.70;5.97;;;;;;;24.67;72.24;99813.34;10453376;28;20059;-71
2023/08/10 01:04:49;;;;;;;12.13;6.18;;;;;;;24.52;72.34;99827.75;10453865;28;20041;-71
2023/08/10 01:10:03;;;;;;;23.13;7.40;;;;;;;24.14;73.87;99772.94;10454379;28;20052;-71
2023/08/10 01:15:13;;;;;;;38.03;7.95;;;;;;;24.65;74.43;99860.88;10452599;28;20471;-71
2023/08/10 01:20:17;;;;;;;16.70;6.25;;;;;;;24.60;73.39;99876.09;10453256;28;20048;-70
2023/08/10 01:25:20;;;;;;;31.08;7.50;;;;;;;24.44;73.73;99852.78;10453781;28;20040;-70
2023/08/10 01:30:21;;;;;;;21.00;6.70;;;;;;;24.40;73.41;99865.22;10454000;28;20056;-70
2023/08/10 01:35:22;;;;;;;20.60;8.07;;;;;;;24.38;73.44;99864.69;10453467;28;20437;-71
2023/08/10 01:40:22;;;;;;;18.65;7.13;;;;;;;24.23;74.13;99880.94;10454233;28;20049;-71
2023/08/10 01:45:23;;;;;;;20.35;7.47;;;;;;;23.89;75.00;99843.44;10460789;28;20049;-70
2023/08/10 01:50:27;;;;;;;30.65;7.05;;;;;;;24.23;76.40;99924.34;10459107;28;20120;-71
2023/08/10 01:55:28;;;;;;;70.40;9.57;;;;;;;24.22;75.48;99907.25;10460153;28;20404;-71
2023/08/10 02:00:30;;;;;;;28.95;7.03;;;;;;;23.92;75.76;99868.13;10458504;28;20033;-70
2023/08/10 02:05:31;;;;;;;24.85;6.95;;;;;;;24.10;75.66;99896.66;10460380;28;20049;-71
2023/08/10 02:10:32;;;;;;;23.77;7.50;;;;;;;24.23;75.73;99910.78;10459696;28;20041;-71
2023/08/10 02:15:33;;;;;;;45.92;8.25;;;;;;;24.25;75.83;99920.28;10459465;28;20147;-71
2023/08/10 02:20:33;;;;;;;44.60;8.10;;;;;;;24.38;75.65;99924.41;10458607;28;20056;-70
2023/08/10 02:25:34;;;;;;;30.13;8.00;;;;;;;24.07;75.36;99880.09;10458577;28;20492;-71
2023/08/10 02:30:35;;;;;;;13.00;6.70;;;;;;;24.04;75.53;99876.03;10458440;28;20041;-70
2023/08/10 02:35:36;;;;;;;15.35;6.20;;;;;;;24.38;75.16;99940.69;10459117;28;20053;-70
2023/08/10 02:40:36;;;;;;;15.85;6.57;;;;;;;24.75;74.65;99977.69;10457887;28;20040;-71
2023/08/10 02:45:37;;;;;;;16.50;6.22;;;;;;;24.58;74.02;99929.06;10458318;28;20051;-71
2023/08/10 02:50:38;;;;;;;22.65;6.55;;;;;;;25.10;73.68;99995.06;10455308;28;20515;-74
2023/08/10 02:55:39;;;;;;;29.83;7.57;;;;;;;25.19;74.18;100004.34;10457144;28;20032;-74
2023/08/10 03:00:41;;;;;;;21.30;6.53;;;;;;;25.18;73.56;99987.22;10457081;28;20123;-74
2023/08/10 03:05:41;;;;;;;10.93;6.18;;;;;;;25.43;73.78;100013.56;10457610;28;20045;-73
2023/08/10 03:10:42;;;;;;;14.52;6.45;;;;;;;25.55;73.34;99990.69;10457659;28;20040;-73
2023/08/10 03:15:43;;;;;;;47.70;7.47;;;;;;;25.85;72.89;100023.28;10457552;28;20045;-73
2023/08/10 03:20:44;;;;;;;22.02;6.35;;;;;;;26.38;70.30;100011.88;10456187;28;20037;-74
2023/08/10 03:25:44;;;;;;;23.60;6.18;;;;;;;27.38;67.02;99982.56;10456005;28;20567;-73
2023/08/10 03:30:45;;;;;;;17.83;5.63;;;;;;;28.76;63.15;100027.28;10449790;28;20045;-74
2023/08/10 03:35:46;;;;;;;26.80;5.78;;;;;;;29.60;59.97;100013.53;10439350;28;20076;-74
2023/08/10 03:40:47;;;;;;;66.25;7.50;;;;;;;30.49;58.33;100039.72;10439034;28;20049;-74
2023/08/10 03:45:47;;;;;;;43.63;6.85;;;;;;;31.09;56.04;100022.13;10433933;28;20047;-75
2023/08/10 03:50:48;;;;;;;23.05;5.65;;;;;;;31.70;53.68;100006.81;10432480;28;20556;-75
2023/08/10 03:55:49;;;;;;;21.42;5.13;;;;;;;32.23;52.37;99994.84;10441788;28;20507;-70
2023/08/10 04:00:50;;;;;;;29.98;5.65;;;;;;;32.27;51.28;99934.53;10451801;28;20044;-71
2023/08/10 04:05:51;;;;;;;31.27;6.10;;;;;;;32.02;52.42;99944.41;10452203;28;20122;-70
2023/08/10 04:10:52;;;;;;;27.50;5.80;;;;;;;32.67;51.23;100001.22;10453489;28;20047;-70
2023/08/10 04:15:53;;;;;;;15.88;5.13;;;;;;;33.43;48.45;99983.25;10446060;28;20043;-71
2023/08/10 04:20:54;;;;;;;17.13;5.60;;;;;;;33.59;47.63;100005.56;10452583;28;20531;-71
2023/08/10 04:25:54;;;;;;;14.73;5.60;;;;;;;32.79;48.29;100032.72;10453532;28;20051;-69
2023/08/10 04:30:55;;;;;;;16.90;5.60;;;;;;;32.36;48.36;99984.81;10452903;28;20052;-70
2023/08/10 04:35:56;;;;;;;15.20;6.13;;;;;;;32.05;48.63;100043.47;10451990;28;20051;-70
2023/08/10 04:40:57;;;;;;;14.05;6.03;;;;;;;32.56;47.57;100026.59;10452963;28;20041;-72
2023/08/10 04:45:57;;;;;;;12.05;6.38;;;;;;;32.84;46.74;100005.88;10453373;28;20045;-70
2023/08/10 04:50:58;;;;;;;21.08;6.30;;;;;;;33.50;45.74;99980.78;10452046;28;20053;-71
2023/08/10 04:55:59;;;;;;;24.77;7.00;;;;;;;33.50;45.21;100016.59;10444850;28;20056;-70
2023/08/10 05:01:02;;;;;;;21.60;5.78;;;;;;;32.69;46.16;99998.91;10453492;28;20041;-70
2023/08/10 05:06:02;;;;;;;23.98;5.63;;;;;;;31.90;47.60;99997.22;10453820;28;20484;-69
2023/08/10 05:11:03;;;;;;;14.00;5.40;;;;;;;31.29;48.63;99972.22;10453767;28;20045;-70
2023/08/10 05:16:04;;;;;;;31.98;5.70;;;;;;;31.86;48.13;99973.41;10456041;28;20090;-70
2023/08/10 05:21:05;;;;;;;11.20;5.15;;;;;;;32.36;47.66;99956.53;10462070;28;20098;-69
2023/08/10 05:26:08;;;;;;;20.33;4.25;;;;;;;32.51;48.22;99976.13;10461421;28;20412;-69
2023/08/10 05:31:09;;;;;;;12.10;3.95;;;;;;;32.27;49.01;99971.06;10460043;28;20064;-68
2023/08/10 05:36:10;;;;;;;9.38;4.28;;;;;;;31.93;49.65;99966.34;10462055;28;20492;-68
2023/08/10 05:41:10;;;;;;;13.98;3.75;;;;;;;31.43;49.88;99894.47;10460422;28;20044;-73
2023/08/10 05:46:11;;;;;;;21.95;4.50;;;;;;;31.52;50.36;99945.53;10460655;28;20040;-68
2023/08/10 05:51:12;;;;;;;22.90;4.75;;;;;;;31.48;51.33;99936.31;10460430;28;20076;-69
2023/08/10 05:56:13;;;;;;;10.55;4.65;;;;;;;31.40;50.84;99947.25;10460240;28;20049;-73
2023/08/10 06:01:13;;;;;;;15.38;4.82;;;;;;;31.54;51.64;99968.00;10459739;28;20530;-69
2023/08/10 06:06:14;;;;;;;9.70;4.78;;;;;;;31.39;52.24;99927.25;10459174;28;20055;-69
2023/08/10 06:11:15;;;;;;;13.07;5.22;;;;;;;31.55;52.09;99941.34;10459632;28;20036;-69
2023/08/10 06:16:16;;;;;;;13.65;5.40;;;;;;;31.69;52.13;99963.19;10458934;28;20041;-70
2023/08/10 06:21:18;;;;;;;26.38;5.88;;;;;;;31.86;52.14;99957.75;10459943;28;20044;-70
2023/08/10 06:26:19;;;;;;;25.92;5.47;;;;;;;31.92;51.51;99953.75;10459062;28;20492;-69
2023/08/10 06:31:19;;;;;;;15.93;5.82;;;;;;;31.95;51.21;99958.63;10458360;28;20068;-69
2023/08/10 06:36:21;;;;;;;19.33;5.80;;;;;;;31.52;51.60;99889.81;10459214;28;20068;-69
2023/08/10 06:41:21;;;;;;;11.57;5.18;;;;;;;31.69;51.71;99883.56;10458006;28;20048;-69
2023/08/10 06:46:22;;;;;;;19.33;5.35;;;;;;;32.35;51.14;99952.19;10458060;28;20118;-69
2023/08/10 06:51:23;;;;;;;13.65;5.30;;;;;;;32.79;51.12;99961.22;10457950;28;20512;-69
2023/08/10 06:56:24;;;;;;;21.50;6.13;;;;;;;32.81;50.93;99950.69;10457312;28;20048;-69
2023/08/10 07:01:24;;;;;;;20.00;5.55;;;;;;;33.00;50.42;99950.34;10457051;28;20127;-69
2023/08/10 07:06:26;;;;;;;21.83;5.28;;;;;;;32.85;50.69;99946.19;10457077;28;20049;-72
2023/08/10 07:11:27;;;;;;;16.23;6.07;;;;;;;32.72;50.58;99932.25;10457328;28;20040;-68
2023/08/10 07:16:28;;;;;;;15.35;5.20;;;;;;;32.64;50.24;99926.81;10457111;28;20393;-69
2023/08/10 07:21:29;;;;;;;13.48;5.00;;;;;;;32.64;51.36;99940.56;10457601;28;20132;-69
2023/08/10 07:26:29;;;;;;;17.70;5.38;;;;;;;32.77;51.72;99939.56;10456798;28;20041;-69
2023/08/10 07:31:33;;;;;;;17.55;5.97;;;;;;;33.09;51.17;99946.47;10456526;28;20123;-69
2023/08/10 07:36:33;;;;;;;27.52;5.95;;;;;;;33.29;50.59;99935.84;10455645;28;20148;-69
2023/08/10 07:41:34;;;;;;;15.02;6.28;;;;;;;33.14;49.74;99916.00;10455495;28;20580;-69
2023/08/10 07:46:35;;;;;;;22.20;6.85;;;;;;;33.53;50.43;99938.84;10456268;28;20091;-70
2023/08/10 07:51:37;;;;;;;28.52;6.70;;;;;;;33.41;50.27;99891.91;10455878;28;20065;-69
2023/08/10 07:56:38;;;;;;;19.65;6.38;;;;;;;33.95;49.68;99955.44;10454856;28;20424;-69
2023/08/10 08:01:39;;;;;;;29.88;6.63;;;;;;;34.20;50.18;99952.91;10455475;28;20060;-70
2023/08/10 08:06:39;;;;;;;25.60;6.22;;;;;;;34.25;49.85;99936.97;10455117;28;20412;-70
2023/08/10 08:11:41;;;;;;;22.75;5.93;;;;;;;34.08;50.19;99904.81;10455501;28;20037;-70
2023/08/10 08:16:42;;;;;;;21.17;5.47;;;;;;;34.48;49.52;99944.88;10454452;28;20042;-70
2023/08/10 08:21:46;;;;;;;14.20;5.20;;;;;;;34.83;49.97;99911.47;10454391;28;20496;-70
2023/08/10 08:26:47;;;;;;;17.83;4.88;;;;;;;35.02;49.58;99886.06;10454092;28;20048;-70
2023/08/10 08:31:47;;;;;;;28.08;6.18;;;;;;;34.93;49.91;99837.28;10450040;28;20045;-71
2023/08/10 08:36:48;;;;;;;22.15;5.00;;;;;;;34.88;50.35;99842.22;10453900;28;20049;-70
2023/08/10 08:41:50;;;;;;;21.27;5.30;;;;;;;34.94;50.77;99907.09;10453853;28;20044;-71
2023/08/10 08:46:51;;;;;;;16.75;5.57;;;;;;;34.67;50.66;99903.84;10454187;28;20526;-71
2023/08/10 08:51:52;;;;;;;14.40;5.93;;;;;;;34.67;50.82;99925.06;10459443;28;20045;-70
2023/08/10 08:56:53;;;;;;;17.00;6.22;;;;;;;34.51;50.59;99911.09;10462208;28;20099;-70
2023/08/10 09:01:55;;;;;;;25.30;5.72;;;;;;;34.34;50.59;99890.00;10461550;28;20076;-70
2023/08/10 09:06:56;;;;;;;13.35;5.65;;;;;;;34.07;50.63;99853.59;10461051;28;20122;-70
2023/08/10 09:11:56;;;;;;;13.20;5.88;;;;;;;34.29;50.50;99865.41;10460972;28;20092;-70
2023/08/10 09:16:57;;;;;;;14.10;5.68;;;;;;;34.51;50.65;99897.31;10439477;28;20048;-70
2023/08/10 09:21:58;;;;;;;17.75;6.13;;;;;;;34.38;50.95;99873.59;10449546;28;20090;-71
2023/08/10 09:27:02;;;;;;;15.63;5.35;;;;;;;34.56;51.09;99891.63;10443338;28;20049;-71
2023/08/10 09:32:03;;;;;;;21.90;5.75;;;;;;;35.25;50.04;99890.03;10443970;28;20029;-72
2023/08/10 09:37:05;;;;;;;18.93;5.73;;;;;;;35.36;49.77;99858.03;10447354;28;20037;-72
2023/08/10 09:42:05;;;;;;;17.30;5.40;;;;;;;35.15;49.75;99844.38;10439168;28;20547;-71
2023/08/10 09:47:06;;;;;;;22.65;5.72;;;;;;;34.91;49.35;99823.06;10438428;28;20048;-71
2023/08/10 09:52:07;;;;;;;21.95;5.80;;;;;;;34.80;49.08;99808.09;10438668;28;20539;-71
2023/08/10 09:57:08;;;;;;;30.38;5.97;;;;;;;34.37;49.38;99715.59;10438503;28;20511;-71
2023/08/10 10:02:11;;;;;;;22.38;5.70;;;;;;;34.80;49.51;99771.44;10441156;28;20041;-72
2023/08/10 10:07:13;;;;;;;27.60;5.45;;;;;;;34.79;48.65;99762.31;10446949;28;20080;-70
2023/08/10 10:12:14;;;;;;;46.17;6.43;;;;;;;34.59;48.16;99710.84;10437215;28;20478;-70
2023/08/10 10:17:17;;;;;;;24.30;5.60;;;;;;;34.95;49.66;99777.06;10448072;28;20041;-70
2023/08/10 10:22:20;;;;;;;25.60;5.80;;;;;;;35.22;48.09;99772.00;10438919;28;20059;-71
2023/08/10 10:27:21;;;;;;;21.75;6.05;;;;;;;34.78;48.45;99661.41;10444574;28;20169;-70
2023/08/10 10:32:23;;;;;;;35.13;6.25;;;;;;;35.74;47.65;99760.13;10435441;28;20053;-70
2023/08/10 10:37:30;;;;;;;24.23;5.82;;;;;;;35.81;46.05;99690.44;10440774;28;20037;-70
2023/08/10 10:42:31;;;;;;;29.92;5.93;;;;;;;36.86;45.81;99783.28;10451785;28;20033;-70
2023/08/10 10:47:47;;;;;;;25.10;5.43;;;;;;;37.16;44.29;99775.31;10435500;28;20036;-70
2023/08/10 10:52:56;;;;;;;24.35;5.45;;;;;;;37.11;42.46;99765.28;10446436;28;20033;-70
2023/08/10 10:57:58;;;;;;;21.08;5.80;;;;;;;37.12;42.53;99769.66;10437720;28;20047;-69
2023/08/10 11:02:59;;;;;;;;;;;;;;;37.57;42.32;99801.53;10435122;28;20045;-73
2023/08/10 11:08:05;;;;;;;39.70;5.57;;;;;;;37.52;42.79;99809.38;10442369;28;19916;-70
2023/08/10 11:13:10;;;;;;;30.25;5.93;;;;;;;37.42;41.77;99821.75;10438804;28;20040;-71
2023/08/10 11:18:12;;;;;;;20.25;5.28;;;;;;;37.23;42.30;99797.59;10441811;28;20051;-70
2023/08/10 11:23:13;;;;;;;19.35;5.28;;;;;;;37.18;42.02;99778.50;10456423;28;20467;-69
2023/08/10 11:28:16;;;;;;;28.47;5.80;;;;;;;37.34;41.44;99792.31;10456208;28;20044;-70
2023/08/10 11:33:19;;;;;;;18.27;5.10;;;;;;;37.38;40.07;99795.97;10456234;28;20463;-75
2023/08/10 11:38:20;;;;;;;20.70;5.55;;;;;;;37.32;41.23;99794.63;10456137;28;20412;-70
2023/08/10 11:43:25;;;;;;;22.42;5.60;;;;;;;37.25;40.89;99795.28;10455736;28;20047;-70
2023/08/10 11:48:26;;;;;;;29.98;5.40;;;;;;;37.43;40.59;99798.47;10456494;28;20098;-71
2023/08/10 11:53:36;;;;;;;;;;;;;;;37.52;39.46;99796.31;10453394;28;20037;-69
2023/08/10 12:11:55;;;;;;;15.27;4.93;;;;;;;37.61;40.01;99763.66;10441473;28;20434;-69
2023/08/10 12:16:56;;;;;;;25.77;5.20;;;;;;;37.39;39.42;99731.06;10440819;28;20500;-69
2023/08/10 12:22:05;;;;;;;15.20;5.13;;;;;;;37.56;39.18;99786.09;10400246;28;20049;-69
2023/08/10 12:27:06;;;;;;;34.05;5.80;;;;;;;37.13;39.24;99723.41;10399409;28;20053;-70
2023/08/10 12:32:07;;;;;;;30.57;6.37;;;;;;;37.44;39.45;99775.13;10400184;28;20049;-69
2023/08/10 12:37:08;;;;;;;16.67;5.03;;;;;;;37.43;39.92;99776.28;10396776;28;20041;-72
2023/08/10 12:42:08;;;;;;;11.43;5.17;;;;;;;37.22;39.42;99705.41;10392451;28;20417;-69
2023/08/10 12:47:09;;;;;;;17.20;5.07;;;;;;;37.62;39.67;99759.69;10386294;28;20041;-70
2023/08/10 12:52:10;;;;;;;19.30;5.70;;;;;;;37.54;39.74;99740.50;10382686;28;20523;-69
2023/08/10 12:57:11;;;;;;;25.50;5.47;;;;;;;37.63;38.53;99755.75;10392793;28;20049;-69
2023/08/10 13:02:12;;;;;;;10.87;4.60;;;;;;;37.58;38.47;99738.63;10383974;28;20057;-69
2023/08/10 13:07:13;;;;;;;28.47;4.80;;;;;;;37.71;38.45;99744.81;10376994;28;20049;-69
2023/08/10 13:12:13;;;;;;;29.33;6.50;;;;;;;37.39;38.69;99690.31;10352924;28;20623;-70
2023/08/10 13:17:14;;;;;;;20.00;5.17;;;;;;;37.72;37.76;99741.66;10373352;28;20046;-70
2023/08/10 13:22:15;;;;;;;19.13;5.70;;;;;;;37.59;38.48;99738.25;10360837;28;20052;-69
2023/08/10 13:27:16;;;;;;;18.57;5.07;;;;;;;37.71;38.48;99733.75;10350850;28;20131;-69
2023/08/10 13:32:18;;;;;;;24.40;5.93;;;;;;;37.66;37.75;99713.47;10356204;28;20034;-69
2023/08/10 13:37:18;;;;;;;15.98;5.03;;;;;;;37.62;36.82;99712.59;10348964;28;20042;-69
2023/08/10 13:42:19;;;;;;;16.80;5.13;;;;;;;37.71;37.08;99730.97;10363031;28;20042;-69
2023/08/10 13:47:20;;;;;;;18.93;4.80;;;;;;;37.65;37.44;99736.78;10351435;28;20047;-69
2023/08/10 13:57:36;;;;;;;46.95;6.45;;;;;;;37.20;37.90;99674.50;10733432;22;20086;-71
2023/08/10 14:02:36;;;;;;;23.63;4.63;;;;;;;37.46;38.23;99737.59;10416794;28;20485;-71
2023/08/10 14:07:37;;;;;;;32.60;4.93;;;;;;;37.35;36.33;99735.75;10416991;28;20054;-73
2023/08/10 14:12:38;;;;;;;29.10;4.53;;;;;;;37.09;36.58;99726.06;10416689;28;20063;-72
2023/08/10 14:17:39;;;;;;;34.60;5.07;;;;;;;36.74;36.88;99693.66;10416829;28;20489;-74
2023/08/10 14:22:39;;;;;;;16.27;4.67;;;;;;;36.82;36.77;99716.75;10415219;28;20045;-74
2023/08/10 14:27:40;;;;;;;17.43;4.50;;;;;;;36.55;36.48;99693.56;10416278;28;20131;-75
2023/08/10 14:32:41;;;;;;;27.33;5.17;;;;;;;36.23;36.02;99662.31;10416085;28;20064;-74
2023/08/10 14:37:41;;;;;;;45.97;6.03;;;;;;;36.19;36.08;99692.66;10415377;28;20041;-74
2023/08/10 14:42:42;;;;;;;18.00;3.80;;;;;;;36.51;35.44;99761.81;10416084;28;20044;-75
2023/08/10 14:47:59;;;;;;;29.63;4.53;;;;;;;36.30;35.08;99748.25;10413645;28;20041;-74
2023/08/10 14:52:59;;;;;;;101.13;10.73;;;;;;;35.95;35.83;99725.97;10414667;28;20045;-72
2023/08/10 14:58:01;;;;;;;85.18;7.20;;;;;;;35.98;35.84;99783.31;10415273;28;20064;-75
2023/08/10 15:03:03;;;;;;;31.40;4.80;;;;;;;35.64;35.71;99752.34;10415462;28;20061;-74
2023/08/10 15:08:05;;;;;;;48.72;4.90;;;;;;;35.55;35.60;99759.97;10414519;28;20124;-72
2023/08/10 15:13:39;;;;;;;31.60;5.00;;;;;;;35.04;35.27;99715.41;10573675;27;20474;-73
2023/08/10 15:18:40;;;;;;;17.52;4.07;;;;;;;35.01;35.04;99732.66;10574931;28;20035;-73
2023/08/10 15:23:42;;;;;;;30.58;4.45;;;;;;;35.09;34.54;99775.91;10574117;28;20579;-72
2023/08/10 15:28:43;;;;;;;53.25;5.95;;;;;;;35.13;34.47;99793.41;10574496;28;20078;-75
2023/08/10 15:33:44;;;;;;;32.40;4.87;;;;;;;35.04;34.06;99799.03;10573241;28;20044;-73
2023/08/10 15:38:45;;;;;;;32.10;4.75;;;;;;;34.92;33.68;99805.34;10573426;28;20050;-77
2023/08/10 15:43:46;;;;;;;25.40;4.63;;;;;;;34.82;33.42;99810.50;10550833;28;20033;-73
2023/08/10 15:48:46;;;;;;;33.70;5.13;;;;;;;34.35;33.51;99770.31;10507549;28;20513;-72
2023/08/10 15:53:47;;;;;;;28.98;4.85;;;;;;;34.47;33.01;99805.38;10524327;28;20059;-74
2023/08/10 15:58:48;;;;;;;29.40;4.47;;;;;;;34.38;32.91;99840.50;10529586;28;20411;-76
2023/08/10 16:03:49;;;;;;;29.58;5.20;;;;;;;34.21;33.20;99831.25;10530499;28;20081;-72
2023/08/10 16:08:50;;;;;;;20.83;4.10;;;;;;;33.73;33.26;99776.72;10525153;28;20047;-73
2023/08/10 16:13:52;;;;;;;18.45;3.75;;;;;;;33.86;33.80;99819.69;10487049;28;20486;-71
2023/08/10 16:18:52;;;;;;;28.40;3.97;;;;;;;33.55;33.32;99781.56;10487314;28;20502;-72
2023/08/10 16:23:53;;;;;;;20.75;3.60;;;;;;;33.35;33.18;99763.84;10467747;28;20044;-72
2023/08/10 16:28:55;;;;;;;37.20;5.35;;;;;;;33.54;33.38;99813.81;10459646;28;20044;-71
2023/08/10 16:33:57;;;;;;;30.57;4.20;;;;;;;33.41;33.13;99806.56;10459391;28;20135;-71
2023/08/10 16:38:58;;;;;;;24.50;4.47;;;;;;;33.28;33.32;99816.69;10460460;28;20041;-73
2023/08/10 16:43:59;;;;;;;27.10;4.40;;;;;;;32.89;33.52;99784.81;10458264;28;20519;-72
2023/08/10 16:48:59;;;;;;;26.25;4.47;;;;;;;32.68;33.95;99782.81;10457572;28;20037;-71
2023/08/10 16:54:00;;;;;;;35.30;4.55;;;;;;;33.00;34.40;99856.81;10458554;28;20064;-72
2023/08/10 16:59:01;;;;;;;15.52;3.85;;;;;;;32.80;34.45;99855.56;10458417;28;20124;-71
2023/08/10 17:04:02;;;;;;;19.83;3.70;;;;;;;32.76;35.33;99882.09;10467003;28;20134;-75
2023/08/10 17:09:03;;;;;;;20.35;3.55;;;;;;;32.62;35.85;99877.63;10457724;28;20072;-72
2023/08/10 17:14:04;;;;;;;17.08;3.25;;;;;;;32.41;35.83;99877.47;10475478;28;20052;-74
2023/08/10 17:19:05;;;;;;;22.75;3.80;;;;;;;32.20;35.98;99873.78;10457815;28;20041;-72
2023/08/10 17:24:06;;;;;;;19.95;3.42;;;;;;;32.13;35.78;99884.41;10457380;28;20065;-73
2023/08/10 17:29:07;;;;;;;18.38;3.72;;;;;;;32.07;35.44;99900.28;10475077;28;20499;-74
2023/08/10 17:34:08;;;;;;;17.90;3.55;;;;;;;31.91;35.39;99882.66;10457800;28;20075;-75
2023/08/10 17:39:08;;;;;;;18.45;3.10;;;;;;;31.83;35.13;99890.53;10457303;28;20040;-72
2023/08/10 17:44:09;;;;;;;23.65;3.17;;;;;;;31.63;34.79;99879.34;10467470;28;20040;-73
2023/08/10 17:49:10;;;;;;;24.13;3.85;;;;;;;31.54;34.63;99885.63;10455443;28;20036;-73
2023/08/10 17:54:11;;;;;;;25.40;3.90;;;;;;;31.58;34.90;99899.53;10456411;28;20032;-71
2023/08/10 17:59:12;;;;;;;32.42;4.88;;;;;;;31.47;34.99;99909.16;10456730;28;20032;-71
2023/08/10 18:04:17;;;;;;;32.65;4.65;;;;;;;31.34;35.71;99906.22;10455809;28;20047;-71
2023/08/10 18:09:19;;;;;;;24.38;4.80;;;;;;;31.19;35.65;99892.09;10486014;28;20048;-73
2023/08/10 18:14:20;;;;;;;29.33;4.60;;;;;;;31.18;35.86;99905.03;10463691;28;20055;-72
2023/08/10 18:19:21;;;;;;;23.92;3.88;;;;;;;30.99;36.53;99890.72;10455481;28;20412;-72
2023/08/10 18:24:22;;;;;;;31.77;3.90;;;;;;;31.06;36.61;99899.31;10455676;28;20380;-73
2023/08/10 18:29:22;;;;;;;24.92;4.32;;;;;;;30.67;36.67;99867.94;10454872;28;20048;-71
2023/08/10 18:34:23;;;;;;;20.55;3.75;;;;;;;30.90;36.98;99904.38;10456051;28;20040;-72
2023/08/10 18:39:24;;;;;;;28.83;4.10;;;;;;;30.67;37.47;99892.63;10455713;28;20131;-71
2023/08/10 18:44:25;;;;;;;19.58;3.63;;;;;;;30.79;37.88;99908.53;10454985;28;20167;-71
2023/08/10 18:49:26;;;;;;;20.20;3.70;;;;;;;30.30;38.42;99845.28;10454743;28;20522;-70
2023/08/10 18:54:27;;;;;;;34.60;4.20;;;;;;;30.33;38.83;99877.53;10453897;28;20496;-72
2023/08/10 18:59:27;;;;;;;22.55;4.20;;;;;;;30.50;39.76;99925.41;10454765;28;20040;-71
2023/08/10 19:04:28;;;;;;;11.32;2.85;;;;;;;30.34;41.60;99923.03;10454051;28;20520;-72
2023/08/10 19:09:29;;;;;;;12.77;2.88;;;;;;;30.13;42.45;99908.97;10471356;28;20061;-72
2023/08/10 19:14:30;;;;;;;10.63;3.58;;;;;;;30.13;44.13;99911.69;10495780;28;20049;-70
2023/08/10 19:19:31;;;;;;;13.95;3.70;;;;;;;30.00;45.78;99896.94;10455931;28;20044;-71
2023/08/10 19:24:31;;;;;;;9.13;3.65;;;;;;;29.88;47.21;99912.25;10461816;28;20037;-71
2023/08/10 19:29:34;;;;;;;7.38;3.45;;;;;;;29.77;48.25;99908.94;10487046;28;20045;-71
2023/08/10 19:34:35;;;;;;;7.63;3.58;;;;;;;29.68;48.99;99908.03;10454102;28;20518;-72
2023/08/10 19:39:35;;;;;;;12.98;3.45;;;;;;;29.60;49.54;99919.69;10469319;28;20071;-71
2023/08/10 19:44:36;;;;;;;11.80;3.33;;;;;;;29.40;50.11;99904.47;10494997;28;20028;-71
2023/08/10 19:49:37;;;;;;;11.27;3.55;;;;;;;28.98;50.83;99841.50;10495016;28;20139;-71
2023/08/10 19:54:38;;;;;;;8.30;3.50;;;;;;;28.97;51.05;99859.03;10459238;28;20037;-72
2023/08/10 19:59:38;;;;;;;7.63;3.35;;;;;;;29.27;51.36;99914.31;10460990;28;20049;-71
2023/08/10 20:04:39;;;;;;;9.85;3.30;;;;;;;28.67;51.53;99825.69;10461967;28;20139;-71
2023/08/10 20:09:40;;;;;;;23.13;3.90;;;;;;;29.05;52.01;99898.59;10460916;28;20061;-71
2023/08/10 20:14:41;;;;;;;8.30;3.65;;;;;;;29.05;52.45;99910.34;10461526;28;20048;-70
2023/08/10 20:19:42;;;;;;;13.48;4.07;;;;;;;29.02;52.89;99897.25;10460598;28;20527;-71
2023/08/10 20:24:43;;;;;;;6.45;3.75;;;;;;;28.51;53.82;99827.09;10460457;28;20587;-71
2023/08/10 20:29:44;;;;;;;11.27;3.92;;;;;;;28.83;54.77;99901.94;10460577;28;20045;-71
2023/08/10 20:34:45;;;;;;;8.27;4.10;;;;;;;28.73;54.91;99888.47;10458305;28;20045;-70
2023/08/10 20:39:46;;;;;;;7.97;3.95;;;;;;;28.38;54.96;99827.81;10459664;28;20036;-74
2023/08/10 20:44:47;;;;;;;8.63;4.13;;;;;;;28.67;55.67;99872.16;10459716;28;20044;-71
2023/08/10 20:49:50;;;;;;;8.07;3.60;;;;;;;28.29;56.20;99826.88;10459467;28;20040;-71
2023/08/10 20:54:51;;;;;;;9.38;4.85;;;;;;;28.25;56.56;99837.59;10459688;28;20087;-71
2023/08/10 20:59:51;;;;;;;7.30;4.28;;;;;;;28.47;56.66;99879.88;10459389;28;20045;-71
2023/08/10 21:04:53;;;;;;;9.13;4.22;;;;;;;28.38;57.18;99887.91;10459962;28;20040;-71
2023/08/10 21:09:54;;;;;;;9.43;3.95;;;;;;;27.89;57.91;99824.50;10458793;28;20061;-71
2023/08/10 21:14:55;;;;;;;11.25;4.63;;;;;;;28.18;58.46;99886.28;10458692;28;20446;-69
2023/08/10 21:19:55;;;;;;;12.43;4.80;;;;;;;28.05;59.21;99876.94;10458600;28;20094;-71
2023/08/10 21:24:56;;;;;;;6.50;4.30;;;;;;;28.02;59.74;99876.72;10459147;28;20041;-71
2023/08/10 21:29:57;;;;;;;11.20;4.72;;;;;;;27.99;60.51;99889.84;10456173;28;20044;-71
2023/08/10 21:34:58;;;;;;;7.38;3.95;;;;;;;27.83;61.25;99884.91;10457878;28;20037;-71
2023/08/10 21:39:59;;;;;;;11.45;4.72;;;;;;;27.89;61.77;99891.94;10457506;28;20041;-71
2023/08/10 21:44:59;;;;;;;7.43;4.28;;;;;;;27.44;62.81;99831.38;10456468;28;20037;-71
2023/08/10 21:50:00;;;;;;;6.75;4.43;;;;;;;27.60;63.57;99873.69;10456963;28;20056;-71
2023/08/10 21:55:01;;;;;;;11.13;5.20;;;;;;;27.69;64.50;99899.22;10456206;28;20037;-71
2023/08/10 22:00:10;;;;;;;10.15;4.63;;;;;;;27.06;66.63;99806.69;10456346;28;20044;-71
2023/08/10 22:05:10;;;;;;;9.45;5.00;;;;;;;27.01;66.39;99802.13;10454874;28;20066;-71
2023/08/10 22:10:11;;;;;;;9.35;4.90;;;;;;;27.53;66.79;99892.34;10456166;28;20084;-71
2023/08/10 22:15:12;;;;;;;10.13;4.88;;;;;;;27.49;68.04;99888.56;10464112;28;20492;-71
2023/08/10 22:20:13;;;;;;;11.80;4.93;;;;;;;27.27;69.20;99867.28;10496217;28;20037;-71
2023/08/10 22:25:14;;;;;;;8.38;4.70;;;;;;;27.29;70.25;99865.91;10496680;28;20042;-71
2023/08/10 22:30:14;;;;;;;7.15;4.60;;;;;;;27.26;70.76;99855.56;10497279;28;20411;-70
2023/08/10 22:35:15;;;;;;;11.85;4.95;;;;;;;27.34;71.38;99870.47;10495144;28;20033;-71
2023/08/10 22:40:16;;;;;;;10.63;5.00;;;;;;;27.24;71.85;99865.16;10496729;28;20040;-71
2023/08/10 22:45:17;;;;;;;7.50;5.10;;;;;;;26.82;72.78;99802.06;10497032;28;20047;-71
2023/08/10 22:50:18;;;;;;;12.75;6.90;;;;;;;26.78;74.02;99795.56;10496009;28;20419;-72
2023/08/10 22:55:19;;;;;;;16.08;6.38;;;;;;;26.25;75.32;99735.59;10497839;28;20041;-71
2023/08/10 23:00:20;;;;;;;12.95;5.50;;;;;;;27.03;75.66;99865.34;10496213;28;20036;-70
2023/08/10 23:05:21;;;;;;;12.43;5.43;;;;;;;26.92;75.75;99850.19;10496208;28;20056;-71
2023/08/10 23:10:21;;;;;;;8.82;4.50;;;;;;;26.89;76.92;99860.84;10495454;28;20068;-71
2023/08/10 23:15:22;;;;;;;16.60;4.55;;;;;;;26.82;77.31;99858.47;10497084;28;20162;-70
2023/08/10 23:20:23;;;;;;;12.50;4.32;;;;;;;26.84;77.32;99889.78;10495605;28;20037;-71
2023/08/10 23:25:24;;;;;;;13.82;4.20;;;;;;;25.95;77.08;99744.84;10495812;28;20534;-71